sensor_id;sensor_type;location;lat;lon;timestamp;temperature;humidity
24730;DHT22;12832;52.392;13.066;2022-09-28T00:00:32;26.50;40.80
24730;DHT22;12832;52.392;13.066;2022-09-28T00:03:06;26.50;40.80
24730;DHT22;12832;52.392;13.066;2022-09-28T00:05:37;26.50;40.80
24730;DHT22;12832;52.392;13.066;2022-09-28T00:08:10;26.50;40.80
24730;DHT22;12832;52.392;13.066;2022-09-28T00:10:37;26.50;40.80
24730;DHT22;12832;52.392;13.066;2022-09-28T00:13:09;26.50;40.90
24730;DHT22;12832;52.392;13.066;2022-09-28T00:15:42;26.50;40.80
24730;DHT22;12832;52.392;13.066;2022-09-28T00:18:14;26.50;40.80
24730;DHT22;12832;52.392;13.066;2022-09-28T00:20:41;26.50;40.80
24730;DHT22;12832;52.392;13.066;2022-09-28T00:23:09;26.50;40.80
24730;DHT22;12832;52.392;13.066;2022-09-28T00:25:37;26.50;40.80
24730;DHT22;12832;52.392;13.066;2022-09-28T00:28:07;26.50;40.80
24730;DHT22;12832;52.392;13.066;2022-09-28T00:30:39;26.50;40.90
24730;DHT22;12832;52.392;13.066;2022-09-28T00:33:09;26.50;40.80
24730;DHT22;12832;52.392;13.066;2022-09-28T00:35:39;26.50;40.80
24730;DHT22;12832;52.392;13.066;2022-09-28T00:38:10;26.50;40.80
24730;DHT22;12832;52.392;13.066;2022-09-28T00:40:41;26.50;40.80
24730;DHT22;12832;52.392;13.066;2022-09-28T00:43:35;26.50;40.80
24730;DHT22;12832;52.392;13.066;2022-09-28T00:46:19;26.50;40.80
24730;DHT22;12832;52.392;13.066;2022-09-28T00:49:04;26.50;40.80
24730;DHT22;12832;52.392;13.066;2022-09-28T00:51:37;26.50;40.80
24730;DHT22;12832;52.392;13.066;2022-09-28T00:54:11;26.50;40.80
24730;DHT22;12832;52.392;13.066;2022-09-28T00:56:45;26.50;40.80
24730;DHT22;12832;52.392;13.066;2022-09-28T00:59:14;26.50;40.80
24730;DHT22;12832;52.392;13.066;2022-09-28T01:01:44;26.50;40.80
24730;DHT22;12832;52.392;13.066;2022-09-28T01:04:16;26.50;40.80
24730;DHT22;12832;52.392;13.066;2022-09-28T01:06:57;26.50;40.80
24730;DHT22;12832;52.392;13.066;2022-09-28T01:09:30;26.50;40.80
24730;DHT22;12832;52.392;13.066;2022-09-28T01:11:58;26.50;40.80
24730;DHT22;12832;52.392;13.066;2022-09-28T01:14:29;26.50;40.80
24730;DHT22;12832;52.392;13.066;2022-09-28T01:17:15;26.50;40.80
24730;DHT22;12832;52.392;13.066;2022-09-28T01:22:56;26.50;40.80
24730;DHT22;12832;52.392;13.066;2022-09-28T01:26:06;26.50;40.80
24730;DHT22;12832;52.392;13.066;2022-09-28T01:28:34;26.50;40.80
24730;DHT22;12832;52.392;13.066;2022-09-28T01:33:49;26.50;40.80
24730;DHT22;12832;52.392;13.066;2022-09-28T01:36:28;26.50;40.80
24730;DHT22;12832;52.392;13.066;2022-09-28T01:39:04;26.50;40.80
24730;DHT22;12832;52.392;13.066;2022-09-28T01:41:39;26.50;40.80
24730;DHT22;12832;52.392;13.066;2022-09-28T01:44:10;26.50;40.90
24730;DHT22;12832;52.392;13.066;2022-09-28T01:46:47;26.50;40.80
24730;DHT22;12832;52.392;13.066;2022-09-28T01:49:28;26.50;40.80
24730;DHT22;12832;52.392;13.066;2022-09-28T01:52:19;26.50;40.80
24730;DHT22;12832;52.392;13.066;2022-09-28T01:54:56;26.50;40.80
24730;DHT22;12832;52.392;13.066;2022-09-28T01:57:58;26.50;40.80
24730;DHT22;12832;52.392;13.066;2022-09-28T02:00:32;26.50;40.80
24730;DHT22;12832;52.392;13.066;2022-09-28T02:03:07;26.50;40.90
24730;DHT22;12832;52.392;13.066;2022-09-28T02:05:57;26.50;40.90
24730;DHT22;12832;52.392;13.066;2022-09-28T02:08:35;26.50;40.90
24730;DHT22;12832;52.392;13.066;2022-09-28T02:11:12;26.50;40.90
24730;DHT22;12832;52.392;13.066;2022-09-28T02:14:06;26.50;40.90
24730;DHT22;12832;52.392;13.066;2022-09-28T02:19:23;26.50;40.80
24730;DHT22;12832;52.392;13.066;2022-09-28T02:29:55;26.50;40.80
24730;DHT22;12832;52.392;13.066;2022-09-28T02:32:26;26.50;40.80
24730;DHT22;12832;52.392;13.066;2022-09-28T02:34:58;26.50;40.80
24730;DHT22;12832;52.392;13.066;2022-09-28T02:37:29;26.50;40.90
24730;DHT22;12832;52.392;13.066;2022-09-28T02:40:18;26.50;40.80
24730;DHT22;12832;52.392;13.066;2022-09-28T02:48:57;26.50;40.80
24730;DHT22;12832;52.392;13.066;2022-09-28T03:00:21;26.60;40.90
24730;DHT22;12832;52.392;13.066;2022-09-28T03:03:11;26.50;40.80
24730;DHT22;12832;52.392;13.066;2022-09-28T03:05:52;26.50;40.80
24730;DHT22;12832;52.392;13.066;2022-09-28T03:11:30;26.50;40.80
24730;DHT22;12832;52.392;13.066;2022-09-28T03:14:02;26.50;40.90
24730;DHT22;12832;52.392;13.066;2022-09-28T03:16:32;26.50;40.80
24730;DHT22;12832;52.392;13.066;2022-09-28T03:18:59;26.50;40.80
24730;DHT22;12832;52.392;13.066;2022-09-28T03:21:27;26.50;40.80
24730;DHT22;12832;52.392;13.066;2022-09-28T03:23:55;26.50;40.80
24730;DHT22;12832;52.392;13.066;2022-09-28T03:26:24;26.50;40.80
24730;DHT22;12832;52.392;13.066;2022-09-28T03:28:52;26.50;40.80
24730;DHT22;12832;52.392;13.066;2022-09-28T03:31:23;26.50;40.80
24730;DHT22;12832;52.392;13.066;2022-09-28T03:33:54;26.50;40.90
24730;DHT22;12832;52.392;13.066;2022-09-28T03:36:24;26.60;40.90
24730;DHT22;12832;52.392;13.066;2022-09-28T03:38:54;26.60;40.90
24730;DHT22;12832;52.392;13.066;2022-09-28T03:41:25;26.60;40.90
24730;DHT22;12832;52.392;13.066;2022-09-28T03:43:57;26.60;40.90
24730;DHT22;12832;52.392;13.066;2022-09-28T03:46:26;26.60;41.00
24730;DHT22;12832;52.392;13.066;2022-09-28T03:48:57;26.50;40.90
24730;DHT22;12832;52.392;13.066;2022-09-28T03:51:26;26.50;40.90
24730;DHT22;12832;52.392;13.066;2022-09-28T03:53:55;26.60;40.90
24730;DHT22;12832;52.392;13.066;2022-09-28T03:56:29;26.60;40.90
24730;DHT22;12832;52.392;13.066;2022-09-28T03:59:02;26.60;40.90
24730;DHT22;12832;52.392;13.066;2022-09-28T04:01:31;26.60;41.00
24730;DHT22;12832;52.392;13.066;2022-09-28T04:03:59;26.60;41.00
24730;DHT22;12832;52.392;13.066;2022-09-28T04:06:28;26.60;41.00
24730;DHT22;12832;52.392;13.066;2022-09-28T04:08:59;26.60;41.00
24730;DHT22;12832;52.392;13.066;2022-09-28T04:11:27;26.60;41.00
24730;DHT22;12832;52.392;13.066;2022-09-28T04:14:18;26.60;41.00
24730;DHT22;12832;52.392;13.066;2022-09-28T04:16:46;26.60;41.00
24730;DHT22;12832;52.392;13.066;2022-09-28T04:19:21;26.60;41.00
24730;DHT22;12832;52.392;13.066;2022-09-28T04:21:50;26.60;41.00
24730;DHT22;12832;52.392;13.066;2022-09-28T04:24:20;26.60;41.00
24730;DHT22;12832;52.392;13.066;2022-09-28T04:26:50;26.60;40.90
24730;DHT22;12832;52.392;13.066;2022-09-28T04:29:42;26.60;41.00
24730;DHT22;12832;52.392;13.066;2022-09-28T04:32:18;26.60;41.00
24730;DHT22;12832;52.392;13.066;2022-09-28T04:34:45;26.60;41.00
24730;DHT22;12832;52.392;13.066;2022-09-28T04:37:14;26.60;41.10
24730;DHT22;12832;52.392;13.066;2022-09-28T04:39:45;26.60;41.00
24730;DHT22;12832;52.392;13.066;2022-09-28T04:42:14;26.60;41.00
24730;DHT22;12832;52.392;13.066;2022-09-28T04:44:44;26.60;40.90
24730;DHT22;12832;52.392;13.066;2022-09-28T04:47:17;26.60;41.00
24730;DHT22;12832;52.392;13.066;2022-09-28T04:49:47;26.60;40.90
24730;DHT22;12832;52.392;13.066;2022-09-28T04:52:20;26.60;40.90
24730;DHT22;12832;52.392;13.066;2022-09-28T04:54:53;26.60;40.90
24730;DHT22;12832;52.392;13.066;2022-09-28T04:57:21;26.60;41.00
24730;DHT22;12832;52.392;13.066;2022-09-28T04:59:50;26.60;41.00
24730;DHT22;12832;52.392;13.066;2022-09-28T05:02:20;26.60;40.90
24730;DHT22;12832;52.392;13.066;2022-09-28T05:04:50;26.60;40.80
24730;DHT22;12832;52.392;13.066;2022-09-28T05:07:18;26.60;40.60
24730;DHT22;12832;52.392;13.066;2022-09-28T05:09:48;26.50;40.50
24730;DHT22;12832;52.392;13.066;2022-09-28T05:12:18;26.50;40.40
24730;DHT22;12832;52.392;13.066;2022-09-28T05:14:50;26.40;40.20
24730;DHT22;12832;52.392;13.066;2022-09-28T05:17:19;26.40;40.10
24730;DHT22;12832;52.392;13.066;2022-09-28T05:19:49;26.40;40.00
24730;DHT22;12832;52.392;13.066;2022-09-28T05:22:18;26.40;39.80
24730;DHT22;12832;52.392;13.066;2022-09-28T05:24:44;26.40;39.80
24730;DHT22;12832;52.392;13.066;2022-09-28T05:27:17;26.40;39.80
24730;DHT22;12832;52.392;13.066;2022-09-28T05:29:48;26.30;39.80
24730;DHT22;12832;52.392;13.066;2022-09-28T05:32:15;26.30;39.80
24730;DHT22;12832;52.392;13.066;2022-09-28T05:34:46;26.30;39.70
24730;DHT22;12832;52.392;13.066;2022-09-28T05:37:17;26.30;39.70
24730;DHT22;12832;52.392;13.066;2022-09-28T05:39:47;26.30;39.80
24730;DHT22;12832;52.392;13.066;2022-09-28T05:42:16;26.30;39.80
24730;DHT22;12832;52.392;13.066;2022-09-28T05:44:43;26.20;39.60
24730;DHT22;12832;52.392;13.066;2022-09-28T05:47:11;26.30;39.70
24730;DHT22;12832;52.392;13.066;2022-09-28T05:49:37;26.20;39.60
24730;DHT22;12832;52.392;13.066;2022-09-28T05:52:09;26.20;39.60
24730;DHT22;12832;52.392;13.066;2022-09-28T05:54:39;26.20;39.60
24730;DHT22;12832;52.392;13.066;2022-09-28T05:57:08;26.20;39.60
24730;DHT22;12832;52.392;13.066;2022-09-28T05:59:45;26.20;39.70
24730;DHT22;12832;52.392;13.066;2022-09-28T06:02:12;26.20;39.70
24730;DHT22;12832;52.392;13.066;2022-09-28T06:04:42;26.20;39.70
24730;DHT22;12832;52.392;13.066;2022-09-28T06:07:11;26.20;39.80
24730;DHT22;12832;52.392;13.066;2022-09-28T06:09:39;26.20;39.90
24730;DHT22;12832;52.392;13.066;2022-09-28T06:12:10;26.20;40.00
24730;DHT22;12832;52.392;13.066;2022-09-28T06:14:44;26.20;39.90
24730;DHT22;12832;52.392;13.066;2022-09-28T06:17:17;26.10;39.80
24730;DHT22;12832;52.392;13.066;2022-09-28T06:19:54;26.10;39.90
24730;DHT22;12832;52.392;13.066;2022-09-28T06:22:23;26.10;39.90
24730;DHT22;12832;52.392;13.066;2022-09-28T06:24:49;26.10;39.90
24730;DHT22;12832;52.392;13.066;2022-09-28T06:27:19;26.10;39.90
24730;DHT22;12832;52.392;13.066;2022-09-28T06:29:47;26.10;39.90
24730;DHT22;12832;52.392;13.066;2022-09-28T06:32:15;26.10;39.80
24730;DHT22;12832;52.392;13.066;2022-09-28T06:34:46;26.10;39.80
24730;DHT22;12832;52.392;13.066;2022-09-28T06:37:24;26.10;39.80
24730;DHT22;12832;52.392;13.066;2022-09-28T06:39:55;26.10;39.80
24730;DHT22;12832;52.392;13.066;2022-09-28T06:42:38;26.00;39.80
24730;DHT22;12832;52.392;13.066;2022-09-28T06:45:11;26.10;39.80
24730;DHT22;12832;52.392;13.066;2022-09-28T06:47:42;26.00;39.70
24730;DHT22;12832;52.392;13.066;2022-09-28T06:50:11;26.00;39.80
24730;DHT22;12832;52.392;13.066;2022-09-28T06:52:51;26.00;39.80
24730;DHT22;12832;52.392;13.066;2022-09-28T06:55:20;26.00;39.70
24730;DHT22;12832;52.392;13.066;2022-09-28T06:58:04;26.00;39.70
24730;DHT22;12832;52.392;13.066;2022-09-28T07:00:37;26.00;39.60
24730;DHT22;12832;52.392;13.066;2022-09-28T07:03:07;26.00;39.60
24730;DHT22;12832;52.392;13.066;2022-09-28T07:05:53;26.00;39.60
24730;DHT22;12832;52.392;13.066;2022-09-28T07:08:27;26.00;39.60
24730;DHT22;12832;52.392;13.066;2022-09-28T07:10:55;26.00;39.60
24730;DHT22;12832;52.392;13.066;2022-09-28T07:13:26;26.00;39.50
24730;DHT22;12832;52.392;13.066;2022-09-28T07:16:16;26.00;39.50
24730;DHT22;12832;52.392;13.066;2022-09-28T07:18:55;26.00;39.50
24730;DHT22;12832;52.392;13.066;2022-09-28T07:21:25;26.00;39.40
24730;DHT22;12832;52.392;13.066;2022-09-28T07:23:56;26.00;39.40
24730;DHT22;12832;52.392;13.066;2022-09-28T07:26:30;26.00;39.40
24730;DHT22;12832;52.392;13.066;2022-09-28T07:29:05;26.00;39.40
24730;DHT22;12832;52.392;13.066;2022-09-28T07:31:38;26.00;39.30
24730;DHT22;12832;52.392;13.066;2022-09-28T07:34:07;26.00;39.40
24730;DHT22;12832;52.392;13.066;2022-09-28T07:36:39;26.00;39.30
24730;DHT22;12832;52.392;13.066;2022-09-28T07:39:08;26.00;39.30
24730;DHT22;12832;52.392;13.066;2022-09-28T07:41:47;26.00;39.30
24730;DHT22;12832;52.392;13.066;2022-09-28T07:44:25;26.00;39.30
24730;DHT22;12832;52.392;13.066;2022-09-28T07:46:53;26.00;39.50
24730;DHT22;12832;52.392;13.066;2022-09-28T07:49:23;26.00;39.50
24730;DHT22;12832;52.392;13.066;2022-09-28T07:51:49;26.00;39.50
24730;DHT22;12832;52.392;13.066;2022-09-28T07:54:18;25.90;39.50
24730;DHT22;12832;52.392;13.066;2022-09-28T07:56:50;26.00;39.50
24730;DHT22;12832;52.392;13.066;2022-09-28T07:59:20;25.90;39.40
24730;DHT22;12832;52.392;13.066;2022-09-28T08:01:54;25.90;39.40
24730;DHT22;12832;52.392;13.066;2022-09-28T08:04:21;25.90;39.40
24730;DHT22;12832;52.392;13.066;2022-09-28T08:06:58;25.90;39.40
24730;DHT22;12832;52.392;13.066;2022-09-28T08:09:28;25.90;39.40
24730;DHT22;12832;52.392;13.066;2022-09-28T08:11:59;25.90;39.50
24730;DHT22;12832;52.392;13.066;2022-09-28T08:14:31;25.90;39.40
24730;DHT22;12832;52.392;13.066;2022-09-28T08:17:06;25.90;39.40
24730;DHT22;12832;52.392;13.066;2022-09-28T08:19:36;25.90;39.50
24730;DHT22;12832;52.392;13.066;2022-09-28T08:22:23;25.90;39.40
24730;DHT22;12832;52.392;13.066;2022-09-28T08:24:50;25.90;39.50
24730;DHT22;12832;52.392;13.066;2022-09-28T08:27:23;25.90;39.50
24730;DHT22;12832;52.392;13.066;2022-09-28T08:29:53;25.90;39.50
24730;DHT22;12832;52.392;13.066;2022-09-28T08:32:24;25.90;39.40
24730;DHT22;12832;52.392;13.066;2022-09-28T08:34:55;25.90;39.40
24730;DHT22;12832;52.392;13.066;2022-09-28T08:37:28;25.90;39.50
24730;DHT22;12832;52.392;13.066;2022-09-28T08:39:59;25.90;39.50
24730;DHT22;12832;52.392;13.066;2022-09-28T08:42:33;25.90;39.60
24730;DHT22;12832;52.392;13.066;2022-09-28T08:45:17;25.80;39.60
24730;DHT22;12832;52.392;13.066;2022-09-28T08:48:01;25.90;39.70
24730;DHT22;12832;52.392;13.066;2022-09-28T08:50:59;25.80;39.70
24730;DHT22;12832;52.392;13.066;2022-09-28T08:56:11;25.80;39.60
24730;DHT22;12832;52.392;13.066;2022-09-28T08:58:44;25.80;39.60
24730;DHT22;12832;52.392;13.066;2022-09-28T09:01:27;25.80;39.60
24730;DHT22;12832;52.392;13.066;2022-09-28T09:04:04;25.80;39.70
24730;DHT22;12832;52.392;13.066;2022-09-28T09:07:09;25.80;39.70
24730;DHT22;12832;52.392;13.066;2022-09-28T09:12:40;25.80;39.80
24730;DHT22;12832;52.392;13.066;2022-09-28T09:15:30;25.80;39.80
24730;DHT22;12832;52.392;13.066;2022-09-28T09:20:56;25.80;39.80
24730;DHT22;12832;52.392;13.066;2022-09-28T09:23:52;25.80;39.80
24730;DHT22;12832;52.392;13.066;2022-09-28T09:26:33;25.80;39.80
24730;DHT22;12832;52.392;13.066;2022-09-28T09:29:51;25.80;39.80
24730;DHT22;12832;52.392;13.066;2022-09-28T09:40:34;25.80;39.90
24730;DHT22;12832;52.392;13.066;2022-09-28T09:51:39;25.80;40.00
24730;DHT22;12832;52.392;13.066;2022-09-28T09:57:18;25.80;40.00
24730;DHT22;12832;52.392;13.066;2022-09-28T09:59:48;25.80;40.00
24730;DHT22;12832;52.392;13.066;2022-09-28T10:02:24;25.80;39.90
24730;DHT22;12832;52.392;13.066;2022-09-28T10:05:06;25.80;39.90
24730;DHT22;12832;52.392;13.066;2022-09-28T10:10:33;25.80;39.90
24730;DHT22;12832;52.392;13.066;2022-09-28T10:13:19;25.80;39.90
24730;DHT22;12832;52.392;13.066;2022-09-28T10:15:52;25.80;39.90
24730;DHT22;12832;52.392;13.066;2022-09-28T10:18:23;25.80;39.90
24730;DHT22;12832;52.392;13.066;2022-09-28T10:20:51;25.80;39.90
24730;DHT22;12832;52.392;13.066;2022-09-28T10:23:32;25.80;39.80
24730;DHT22;12832;52.392;13.066;2022-09-28T10:26:14;25.80;39.80
24730;DHT22;12832;52.392;13.066;2022-09-28T10:29:02;25.80;39.80
24730;DHT22;12832;52.392;13.066;2022-09-28T10:31:52;25.80;39.80
24730;DHT22;12832;52.392;13.066;2022-09-28T10:34:27;25.80;40.10
24730;DHT22;12832;52.392;13.066;2022-09-28T10:37:09;25.90;39.90
24730;DHT22;12832;52.392;13.066;2022-09-28T10:39:57;25.80;39.90
24730;DHT22;12832;52.392;13.066;2022-09-28T10:42:31;25.90;39.80
24730;DHT22;12832;52.392;13.066;2022-09-28T10:45:25;25.90;39.70
24730;DHT22;12832;52.392;13.066;2022-09-28T10:47:57;25.90;39.50
24730;DHT22;12832;52.392;13.066;2022-09-28T10:50:26;25.90;39.20
24730;DHT22;12832;52.392;13.066;2022-09-28T10:52:53;25.90;39.10
24730;DHT22;12832;52.392;13.066;2022-09-28T10:56:01;25.90;39.00
24730;DHT22;12832;52.392;13.066;2022-09-28T10:58:50;25.90;38.90
24730;DHT22;12832;52.392;13.066;2022-09-28T11:01:20;25.90;38.80
24730;DHT22;12832;52.392;13.066;2022-09-28T11:03:59;25.90;38.80
24730;DHT22;12832;52.392;13.066;2022-09-28T11:06:32;25.90;38.90
24730;DHT22;12832;52.392;13.066;2022-09-28T11:09:35;25.80;38.70
24730;DHT22;12832;52.392;13.066;2022-09-28T11:12:44;25.90;38.60
24730;DHT22;12832;52.392;13.066;2022-09-28T11:15:34;25.80;38.70
24730;DHT22;12832;52.392;13.066;2022-09-28T11:18:31;25.90;38.80
24730;DHT22;12832;52.392;13.066;2022-09-28T11:21:13;25.90;38.60
24730;DHT22;12832;52.392;13.066;2022-09-28T11:23:47;25.80;38.60
24730;DHT22;12832;52.392;13.066;2022-09-28T11:26:24;25.80;39.00
24730;DHT22;12832;52.392;13.066;2022-09-28T11:28:52;25.80;39.40
24730;DHT22;12832;52.392;13.066;2022-09-28T11:31:26;25.80;39.50
24730;DHT22;12832;52.392;13.066;2022-09-28T11:34:12;25.80;39.60
24730;DHT22;12832;52.392;13.066;2022-09-28T11:36:54;25.80;39.70
24730;DHT22;12832;52.392;13.066;2022-09-28T11:39:40;25.80;39.60
24730;DHT22;12832;52.392;13.066;2022-09-28T11:42:44;25.80;39.60
24730;DHT22;12832;52.392;13.066;2022-09-28T11:49:31;25.80;39.70
24730;DHT22;12832;52.392;13.066;2022-09-28T11:51:33;25.80;39.80
24730;DHT22;12832;52.392;13.066;2022-09-28T11:54:08;25.80;39.80
24730;DHT22;12832;52.392;13.066;2022-09-28T11:56:44;25.80;39.70
24730;DHT22;12832;52.392;13.066;2022-09-28T11:59:44;25.80;39.70
24730;DHT22;12832;52.392;13.066;2022-09-28T12:02:40;25.80;39.60
24730;DHT22;12832;52.392;13.066;2022-09-28T12:05:29;25.80;39.60
24730;DHT22;12832;52.392;13.066;2022-09-28T12:13:46;25.80;39.60
24730;DHT22;12832;52.392;13.066;2022-09-28T12:16:36;25.80;39.50
24730;DHT22;12832;52.392;13.066;2022-09-28T12:19:47;25.80;39.50
24730;DHT22;12832;52.392;13.066;2022-09-28T12:25:27;25.80;39.50
24730;DHT22;12832;52.392;13.066;2022-09-28T12:28:01;25.80;39.50
24730;DHT22;12832;52.392;13.066;2022-09-28T12:30:45;25.80;39.50
24730;DHT22;12832;52.392;13.066;2022-09-28T12:33:14;25.70;39.50
24730;DHT22;12832;52.392;13.066;2022-09-28T12:45:27;25.80;39.50
24730;DHT22;12832;52.392;13.066;2022-09-28T12:49:45;25.80;39.50
24730;DHT22;12832;52.392;13.066;2022-09-28T12:58:12;25.80;39.60
24730;DHT22;12832;52.392;13.066;2022-09-28T13:04:27;25.80;39.50
24730;DHT22;12832;52.392;13.066;2022-09-28T13:07:29;25.80;39.50
24730;DHT22;12832;52.392;13.066;2022-09-28T13:13:18;25.70;39.40
24730;DHT22;12832;52.392;13.066;2022-09-28T13:19:13;25.70;39.50
24730;DHT22;12832;52.392;13.066;2022-09-28T13:24:58;25.80;39.60
24730;DHT22;12832;52.392;13.066;2022-09-28T13:27:45;25.70;39.50
24730;DHT22;12832;52.392;13.066;2022-09-28T13:30:17;25.70;39.50
24730;DHT22;12832;52.392;13.066;2022-09-28T13:32:47;25.70;39.40
24730;DHT22;12832;52.392;13.066;2022-09-28T13:35:20;25.70;39.40
24730;DHT22;12832;52.392;13.066;2022-09-28T13:47:17;25.70;39.40
24730;DHT22;12832;52.392;13.066;2022-09-28T13:59:22;25.70;39.40
24730;DHT22;12832;52.392;13.066;2022-09-28T14:02:29;25.70;39.40
24730;DHT22;12832;52.392;13.066;2022-09-28T14:08:18;25.70;39.50
24730;DHT22;12832;52.392;13.066;2022-09-28T14:14:01;25.70;39.60
24730;DHT22;12832;52.392;13.066;2022-09-28T14:16:42;25.70;39.60
24730;DHT22;12832;52.392;13.066;2022-09-28T14:19:29;25.70;39.50
24730;DHT22;12832;52.392;13.066;2022-09-28T14:25:24;25.70;39.60
24730;DHT22;12832;52.392;13.066;2022-09-28T14:28:29;25.70;39.50
24730;DHT22;12832;52.392;13.066;2022-09-28T14:31:27;25.70;39.40
24730;DHT22;12832;52.392;13.066;2022-09-28T14:34:31;25.70;39.40
24730;DHT22;12832;52.392;13.066;2022-09-28T14:37:01;25.70;39.40
24730;DHT22;12832;52.392;13.066;2022-09-28T14:39:57;25.70;39.40
24730;DHT22;12832;52.392;13.066;2022-09-28T14:54:24;25.70;39.50
24730;DHT22;12832;52.392;13.066;2022-09-28T14:59:24;25.70;39.50
24730;DHT22;12832;52.392;13.066;2022-09-28T15:02:27;25.70;39.40
24730;DHT22;12832;52.392;13.066;2022-09-28T15:07:48;25.70;39.40
24730;DHT22;12832;52.392;13.066;2022-09-28T15:10:49;25.70;39.40
24730;DHT22;12832;52.392;13.066;2022-09-28T15:13:26;25.70;39.40
24730;DHT22;12832;52.392;13.066;2022-09-28T15:16:09;25.70;39.40
24730;DHT22;12832;52.392;13.066;2022-09-28T15:21:41;25.70;39.30
24730;DHT22;12832;52.392;13.066;2022-09-28T15:24:33;25.70;39.30
24730;DHT22;12832;52.392;13.066;2022-09-28T15:27:16;25.70;39.30
24730;DHT22;12832;52.392;13.066;2022-09-28T15:33:01;25.70;39.20
24730;DHT22;12832;52.392;13.066;2022-09-28T15:36:01;25.70;39.20
24730;DHT22;12832;52.392;13.066;2022-09-28T15:38:38;25.70;39.10
24730;DHT22;12832;52.392;13.066;2022-09-28T15:41:12;25.70;39.10
24730;DHT22;12832;52.392;13.066;2022-09-28T15:43:58;25.70;39.10
24730;DHT22;12832;52.392;13.066;2022-09-28T15:46:31;25.70;39.10
24730;DHT22;12832;52.392;13.066;2022-09-28T15:49:03;25.70;39.00
24730;DHT22;12832;52.392;13.066;2022-09-28T15:51:47;25.70;39.00
24730;DHT22;12832;52.392;13.066;2022-09-28T15:54:37;25.70;39.70
24730;DHT22;12832;52.392;13.066;2022-09-28T15:57:37;25.70;39.00
24730;DHT22;12832;52.392;13.066;2022-09-28T16:00:28;25.70;38.90
24730;DHT22;12832;52.392;13.066;2022-09-28T16:08:43;25.70;38.80
24730;DHT22;12832;52.392;13.066;2022-09-28T16:11:22;25.70;38.70
24730;DHT22;12832;52.392;13.066;2022-09-28T16:14:17;25.70;38.70
24730;DHT22;12832;52.392;13.066;2022-09-28T16:16:53;25.70;38.70
24730;DHT22;12832;52.392;13.066;2022-09-28T16:19:34;25.60;38.70
24730;DHT22;12832;52.392;13.066;2022-09-28T16:22:04;25.60;38.60
24730;DHT22;12832;52.392;13.066;2022-09-28T16:24:36;25.70;38.70
24730;DHT22;12832;52.392;13.066;2022-09-28T16:27:21;25.60;38.60
24730;DHT22;12832;52.392;13.066;2022-09-28T16:30:25;25.60;38.60
24730;DHT22;12832;52.392;13.066;2022-09-28T16:33:02;25.60;38.60
24730;DHT22;12832;52.392;13.066;2022-09-28T16:38:15;25.60;38.70
24730;DHT22;12832;52.392;13.066;2022-09-28T16:40:47;25.60;38.60
24730;DHT22;12832;52.392;13.066;2022-09-28T16:43:27;25.60;38.60
24730;DHT22;12832;52.392;13.066;2022-09-28T16:46:13;25.60;38.60
24730;DHT22;12832;52.392;13.066;2022-09-28T16:48:48;25.60;38.60
24730;DHT22;12832;52.392;13.066;2022-09-28T16:51:21;25.60;38.70
24730;DHT22;12832;52.392;13.066;2022-09-28T16:54:21;25.60;38.70
24730;DHT22;12832;52.392;13.066;2022-09-28T16:57:15;25.60;38.70
24730;DHT22;12832;52.392;13.066;2022-09-28T16:59:44;25.60;38.80
24730;DHT22;12832;52.392;13.066;2022-09-28T17:02:20;25.60;38.70
24730;DHT22;12832;52.392;13.066;2022-09-28T17:05:16;25.60;38.80
24730;DHT22;12832;52.392;13.066;2022-09-28T17:08:02;25.70;38.80
24730;DHT22;12832;52.392;13.066;2022-09-28T17:10:57;25.70;38.80
24730;DHT22;12832;52.392;13.066;2022-09-28T17:13:54;25.70;38.80
24730;DHT22;12832;52.392;13.066;2022-09-28T17:17:00;25.70;38.80
24730;DHT22;12832;52.392;13.066;2022-09-28T17:19:41;25.80;38.90
24730;DHT22;12832;52.392;13.066;2022-09-28T17:22:10;25.80;38.90
24730;DHT22;12832;52.392;13.066;2022-09-28T17:24:36;25.80;38.80
24730;DHT22;12832;52.392;13.066;2022-09-28T17:27:02;25.80;38.80
24730;DHT22;12832;52.392;13.066;2022-09-28T17:29:30;25.80;38.90
24730;DHT22;12832;52.392;13.066;2022-09-28T17:32:07;25.80;38.80
24730;DHT22;12832;52.392;13.066;2022-09-28T17:34:44;25.80;38.90
24730;DHT22;12832;52.392;13.066;2022-09-28T17:37:27;25.90;38.90
24730;DHT22;12832;52.392;13.066;2022-09-28T17:40:11;25.90;38.90
24730;DHT22;12832;52.392;13.066;2022-09-28T17:42:42;25.90;38.90
24730;DHT22;12832;52.392;13.066;2022-09-28T17:45:09;25.90;38.80
24730;DHT22;12832;52.392;13.066;2022-09-28T17:47:37;25.90;38.90
24730;DHT22;12832;52.392;13.066;2022-09-28T17:50:20;25.90;38.80
24730;DHT22;12832;52.392;13.066;2022-09-28T17:52:52;26.00;38.90
24730;DHT22;12832;52.392;13.066;2022-09-28T17:55:48;26.00;38.90
24730;DHT22;12832;52.392;13.066;2022-09-28T17:58:21;26.00;38.90
24730;DHT22;12832;52.392;13.066;2022-09-28T18:00:58;26.00;38.90
24730;DHT22;12832;52.392;13.066;2022-09-28T18:03:46;26.00;38.90
24730;DHT22;12832;52.392;13.066;2022-09-28T18:06:19;26.00;38.90
24730;DHT22;12832;52.392;13.066;2022-09-28T18:08:55;26.00;38.90
24730;DHT22;12832;52.392;13.066;2022-09-28T18:11:35;26.00;38.90
24730;DHT22;12832;52.392;13.066;2022-09-28T18:14:07;26.00;38.90
24730;DHT22;12832;52.392;13.066;2022-09-28T18:16:44;26.00;38.90
24730;DHT22;12832;52.392;13.066;2022-09-28T18:19:30;26.00;38.90
24730;DHT22;12832;52.392;13.066;2022-09-28T18:21:58;26.00;38.90
24730;DHT22;12832;52.392;13.066;2022-09-28T18:24:30;26.00;38.90
24730;DHT22;12832;52.392;13.066;2022-09-28T18:27:05;26.10;38.90
24730;DHT22;12832;52.392;13.066;2022-09-28T18:29:31;26.00;38.90
24730;DHT22;12832;52.392;13.066;2022-09-28T18:32:01;26.10;38.90
24730;DHT22;12832;52.392;13.066;2022-09-28T18:34:34;26.10;38.90
24730;DHT22;12832;52.392;13.066;2022-09-28T18:37:11;26.10;38.90
24730;DHT22;12832;52.392;13.066;2022-09-28T18:39:45;26.10;38.90
24730;DHT22;12832;52.392;13.066;2022-09-28T18:42:16;26.10;38.90
24730;DHT22;12832;52.392;13.066;2022-09-28T18:44:47;26.10;39.00
24730;DHT22;12832;52.392;13.066;2022-09-28T18:47:28;26.10;38.90
24730;DHT22;12832;52.392;13.066;2022-09-28T18:50:02;26.10;38.90
24730;DHT22;12832;52.392;13.066;2022-09-28T18:52:29;26.10;38.90
24730;DHT22;12832;52.392;13.066;2022-09-28T18:55:04;26.10;38.90
24730;DHT22;12832;52.392;13.066;2022-09-28T18:57:31;26.20;39.00
24730;DHT22;12832;52.392;13.066;2022-09-28T19:00:05;26.20;39.00
24730;DHT22;12832;52.392;13.066;2022-09-28T19:02:34;26.10;38.90